Center, CO

6:08 PM MST on March 02, 2015 (GMT -0700)
NE of Center | Change Station
CLOSE
Current Station
Personal Weather Station
Location: Center, CO
Elevation: 7631 ft
Nearby Weather Stations

Elev 7631 ft 37.76 °N, 106.09 °W | Updated 19 seconds ago

Rain
Rain
34.9 °F
Feels Like 28 °F
N
8.0
Wind Variable Wind from SSE
Gusts 13.0 mph

Today
High -- | Low -- °F
--% Chance of Precip.
Yesterday
High -- | Low -- °F
Precip. -- in
6:34 AM 5:58 PM
Waxing Gibbous, 94% visible
Pressure 29.74 in
Visibility 10.0 miles
Clouds Mostly Cloudy 1100 ft
Mostly Cloudy 1400 ft
Overcast 2400 ft
Windchill 28 °F
Dew Point 32 °F
Humidity 89%
Rainfall 0.05 in
Snow Depth Not available.
UV 0.0 out of 12
Pollen 4.70 out of 12
Air Quality Not available.
Flu Activity Not available.
METAR K04V 030056Z AUTO 20007KT 10SM -DZ BKN011 BKN014 OVC024 02/01 A2974 RMK AO2 LTG DSNT SW

More Conditions Fewer Conditions

Pressure 29.74 in
Visibility 10.0 miles
Clouds Mostly Cloudy 1100 ft
Mostly Cloudy 1400 ft
Overcast 2400 ft
Windchill 28 °F
Dew Point 32 °F
Humidity 89%
Rainfall 0.05 in
Snow Depth Not available.
UV 0.0 out of 12
Pollen 4.70 out of 12
Air Quality Not available.
Flu Activity Not available.
METAR K04V 030056Z AUTO 20007KT 10SM -DZ BKN011 BKN014 OVC024 02/01 A2974 RMK AO2 LTG DSNT SW

More Conditions Fewer Conditions

10-Day Weather Forecast

Almanac

Astronomy

Mar. 02, 2015 Rise Set
Actual Time
Civil Twilight
Nautical Twilight
Astronomical Twilight
Moon
Length of Visible Light
Length of Day
Tomorrow will be .
, % of the Moon is Illuminated

Today's Extremes

State Highs State Lows

Community

WunderPhotos

Upload Photos

1,802,016 photos uploaded!

WunderBlogs® & News

Nearby

Air Quality

  Air Quality AQ Index Pollutant
Not available.

Snow Depth

Station Depth Elevation

Earthquake Activity

City Distance Mag. Time & Date
Minimum magnitude displayed is 2.5.

Coastal Water Temperatures

Place Temperature

Nearby Weather Stations